Terminal Aerodrome Forecast
Issued by NWS Topeka, KS

Home | Current Version | Previous Version | Graphics & Text | Print | Product List | Glossary On
Versions: 1 2 3 4 5 6 7 8 9 10 11 12 13
000
FTUS43 KTOP 181734
TAFTOP
TAF
KTOP 181734Z 1818/1918 31020G30KT P6SM BKN025
     FM182000 32017G24KT P6SM SCT035
     FM190100 33012KT P6SM FEW035
     FM190400 33006KT P6SM SKC=

USA.gov is the U.S. government's official web portal to all federal, state and local government web resources and services.